首页
METAR-TAF:

METAR-TAF

机场 :

厦门高崎国际机场

厦门, 中华人民共和国

纬度: 24-29N, 经度: 118-05E, 海拔: 139米

当前天气观测

该预报发布于44分钟前的08:00 UTC
风速8节,风向北转东北
温度 15°C
湿度 77%
气压 1020 hPa
能见度10公里或以上
多云层高于2300英尺
阴天层高于4000英尺

METAR: ZSAM 170800Z 03004MPS 9999 BKN023 OVC040 15/11 Q1020 NOSIG

时间: 16:44 (08:44 UTC)

预报

该预报发布于5小时和39分钟前的03:05 UTC
预报有效从17日的 06点(UTC)到 18日的 06点(UTC)
风速10节,风向东转东北,有时为19节阵风
能見度: 6000
散云层高于1500英尺
多云层高于2300英尺

TAF: ZSAM 170305Z 1706/1806 06005G10MPS 6000 SCT015 BKN023 TX17/1706Z TN13/1721Z

超过4000个机场的气象观测和天气预报(METAR&TAF报告)。

可查询的气象台以黄色和红色小点在地图上表示。

将鼠标移到小点上方,可查看气象台名称。

然后点击查看天气观测和预报。

如需切换地图:点击带黑十字的绿色按钮放大地图;点击带横线的绿色按钮缩小地图;或者点击绿色箭头查看邻近地区的地图。


METAR-TAF: